Time;durP1;ratioP1;P1;durP2;ratioP2;P2;SDS_P1;SDS_P2;PMS_P1;PMS_P2;Temp;Humidity;BMP_temperature;BMP_pressure;BME280_temperature;BME280_humidity;BME280_pressure;Samples;Min_cycle;Max_cycle;Signal;HPM_P1;HPM_P2
2023/10/04 00:00:42;;;;;;;;;;;;;;;18.90;100.00;99011.25;5118841;28;19934;-73
2023/10/04 00:03:08;;;;;;;;;;;;;;;18.99;100.00;99003.28;5118826;28;19934;-73
2023/10/04 00:05:36;;;;;;;;;;;;;;;18.99;100.00;99014.94;5118840;28;19976;-70
2023/10/04 00:08:03;;;;;;;;;;;;;;;19.06;100.00;99009.97;5116660;28;19951;-71
2023/10/04 00:10:29;;;;;;;;;;;;;;;19.02;100.00;99005.41;5115139;28;19931;-71
2023/10/04 00:12:56;;;;;;;;;;;;;;;19.00;100.00;99005.69;5116862;28;19924;-71
2023/10/04 00:15:25;;;;;;;;;;;;;;;19.02;100.00;99013.53;5118465;28;19924;-71
2023/10/04 00:17:53;;;;;;;;;;;;;;;19.04;100.00;99006.72;5118033;28;19977;-71
2023/10/04 00:20:20;;;;;;;;;;;;;;;18.93;100.00;99007.97;5119110;28;19923;-71
2023/10/04 00:22:47;;;;;;;;;;;;;;;18.84;100.00;99004.31;5100484;28;19932;-71
2023/10/04 00:25:17;;;;;;;;;;;;;;;18.86;100.00;98997.50;5120388;28;19924;-71
2023/10/04 00:27:44;;;;;;;;;;;;;;;18.88;100.00;98997.19;5118400;28;19995;-71
2023/10/04 00:30:17;;;;;;;;;;;;;;;18.93;100.00;98994.44;5117736;28;20494;-71
2023/10/04 00:32:46;;;;;;;;;;;;;;;18.95;100.00;98999.56;5110512;28;19924;-71
2023/10/04 00:35:15;;;;;;;;;;;;;;;18.92;100.00;98998.25;5114994;28;19924;-71
2023/10/04 00:37:43;;;;;;;;;;;;;;;18.96;100.00;99010.09;5118204;28;19932;-71
2023/10/04 00:40:12;;;;;;;;;;;;;;;18.88;100.00;99009.94;5118238;28;19924;-71
2023/10/04 00:42:38;;;;;;;;;;;;;;;18.83;100.00;99005.41;5118172;28;19934;-71
2023/10/04 00:45:06;;;;;;;;;;;;;;;18.85;100.00;99009.41;5117732;28;19927;-71
2023/10/04 00:47:33;;;;;;;;;;;;;;;18.88;100.00;99010.72;5119112;28;19930;-70
2023/10/04 00:50:07;;;;;;;;;;;;;;;18.92;100.00;99010.97;5117915;28;19924;-71
2023/10/04 00:52:37;;;;;;;;;;;;;;;18.95;100.00;99016.59;5117784;28;19981;-72
2023/10/04 00:55:06;;;;;;;;;;;;;;;18.86;100.00;99011.03;5122528;28;19954;-72
2023/10/04 00:57:32;;;;;;;;;;;;;;;18.91;100.00;99018.28;5114327;28;19931;-72
2023/10/04 00:59:59;;;;;;;;;;;;;;;18.84;100.00;99015.13;5115983;28;19912;-72
2023/10/04 01:02:28;;;;;;;;;;;;;;;18.83;100.00;99016.22;5125717;28;19938;-71
2023/10/04 01:04:55;;;;;;;;;;;;;;;18.85;100.00;99014.00;5114316;28;19979;-71
2023/10/04 01:07:21;;;;;;;;;;;;;;;18.85;100.00;99024.84;5113678;28;20203;-71
2023/10/04 01:09:49;;;;;;;;;;;;;;;18.83;100.00;99018.94;5117016;28;19955;-71
2023/10/04 01:12:22;;;;;;;;;;;;;;;18.84;100.00;99017.84;5118441;28;19951;-71
2023/10/04 01:14:49;;;;;;;;;;;;;;;18.87;100.00;99028.09;5113963;28;19924;-71
2023/10/04 01:17:17;;;;;;;;;;;;;;;18.86;100.00;99026.47;5119264;28;19931;-71
2023/10/04 01:19:44;;;;;;;;;;;;;;;18.78;100.00;99021.69;5120324;28;19935;-71
2023/10/04 01:22:12;;;;;;;;;;;;;;;18.81;100.00;99029.25;5120297;28;19946;-71
2023/10/04 01:24:41;;;;;;;;;;;;;;;18.85;100.00;99025.66;5122401;28;19932;-71
2023/10/04 01:27:08;;;;;;;;;;;;;;;18.92;100.00;99019.09;5118700;28;19923;-71
2023/10/04 01:29:38;;;;;;;;;;;;;;;18.95;100.00;99019.31;5114580;28;19928;-71
2023/10/04 01:32:05;;;;;;;;;;;;;;;18.99;100.00;99022.25;5098558;28;19983;-71
2023/10/04 01:34:31;;;;;;;;;;;;;;;18.97;100.00;99017.09;5099968;28;19946;-71
2023/10/04 01:36:58;;;;;;;;;;;;;;;18.97;100.00;99033.34;5117335;28;19981;-71
2023/10/04 01:39:30;;;;;;;;;;;;;;;18.97;100.00;99027.16;5117361;28;19939;-71
2023/10/04 01:41:56;;;;;;;;;;;;;;;18.97;100.00;99022.53;5115305;28;19997;-71
2023/10/04 01:44:23;;;;;;;;;;;;;;;18.96;100.00;99025.53;5112369;28;19920;-71
2023/10/04 01:46:49;;;;;;;;;;;;;;;18.97;100.00;99024.44;5127929;28;19924;-71
2023/10/04 01:49:15;;;;;;;;;;;;;;;18.94;100.00;99023.09;5120459;28;19928;-71
2023/10/04 01:51:42;;;;;;;;;;;;;;;18.93;100.00;99018.81;5115639;28;19924;-71
2023/10/04 01:54:09;;;;;;;;;;;;;;;18.94;100.00;99023.09;5127409;28;20381;-71
2023/10/04 01:56:37;;;;;;;;;;;;;;;18.95;100.00;99029.31;5118177;28;19924;-71
2023/10/04 01:59:05;;;;;;;;;;;;;;;18.91;100.00;99031.03;5120639;28;19991;-71
2023/10/04 02:01:31;;;;;;;;;;;;;;;18.88;100.00;99032.38;5120342;28;19990;-71
2023/10/04 02:03:59;;;;;;;;;;;;;;;18.81;100.00;99029.25;5119010;28;19924;-71
2023/10/04 02:06:26;;;;;;;;;;;;;;;18.78;100.00;99019.00;5104458;28;19948;-71
2023/10/04 02:08:52;;;;;;;;;;;;;;;18.78;100.00;99021.69;5120562;28;19924;-70
2023/10/04 02:11:21;;;;;;;;;;;;;;;18.80;100.00;99027.63;5120438;28;19928;-71
2023/10/04 02:13:50;;;;;;;;;;;;;;;18.78;100.00;99024.41;5116156;28;19949;-71
2023/10/04 02:16:18;;;;;;;;;;;;;;;18.74;100.00;99024.19;5116773;28;20019;-71
2023/10/04 02:18:46;;;;;;;;;;;;;;;18.73;100.00;99025.25;5117061;28;19923;-71
2023/10/04 02:21:13;;;;;;;;;;;;;;;18.73;100.00;99019.84;5101944;28;19930;-71
2023/10/04 02:23:39;;;;;;;;;;;;;;;18.73;100.00;99027.16;5123176;28;19924;-71
2023/10/04 02:26:07;;;;;;;;;;;;;;;18.72;100.00;99020.16;5123860;28;19923;-71
2023/10/04 02:28:33;;;;;;;;;;;;;;;18.69;100.00;99012.63;5098388;28;19935;-71
2023/10/04 02:31:02;;;;;;;;;;;;;;;18.65;100.00;99014.28;5099639;28;19924;-72
2023/10/04 02:33:33;;;;;;;;;;;;;;;18.61;100.00;99016.75;5128411;28;19974;-71
2023/10/04 02:36:00;;;;;;;;;;;;;;;18.59;100.00;99021.66;5117840;28;19946;-71
2023/10/04 02:38:27;;;;;;;;;;;;;;;18.56;100.00;99016.00;5116766;28;19924;-71
2023/10/04 02:40:54;;;;;;;;;;;;;;;18.56;100.00;99021.41;5118855;28;19920;-72
2023/10/04 02:43:21;;;;;;;;;;;;;;;18.54;100.00;99020.88;5119825;28;20650;-72
2023/10/04 02:45:48;;;;;;;;;;;;;;;18.52;100.00;99023.06;5119794;28;19927;-72
2023/10/04 02:48:16;;;;;;;;;;;;;;;18.52;100.00;99026.59;5119359;28;19928;-72
2023/10/04 02:50:44;;;;;;;;;;;;;;;18.49;100.00;99027.16;5112572;28;19928;-72
2023/10/04 02:53:13;;;;;;;;;;;;;;;18.46;100.00;99022.31;5114072;28;19924;-72
2023/10/04 02:55:40;;;;;;;;;;;;;;;18.45;100.00;99022.56;5128062;28;19924;-72
2023/10/04 02:58:07;;;;;;;;;;;;;;;18.44;100.00;99029.09;5117903;28;19924;-71
2023/10/04 03:00:44;;;;;;;;;;;;;;;18.43;100.00;99022.06;5115635;28;19928;-71
2023/10/04 03:03:10;;;;;;;;;;;;;;;18.45;100.00;99027.97;5102624;28;19931;-71
2023/10/04 03:05:40;;;;;;;;;;;;;;;18.44;100.00;99029.09;5119224;28;19924;-72
2023/10/04 03:08:07;;;;;;;;;;;;;;;18.43;100.00;99027.47;5119312;28;19931;-72
2023/10/04 03:10:34;;;;;;;;;;;;;;;18.38;100.00;99031.06;5101117;28;20003;-72
2023/10/04 03:13:11;;;;;;;;;;;;;;;18.38;100.00;99032.94;5118199;28;19993;-72
2023/10/04 03:15:38;;;;;;;;;;;;;;;18.35;100.00;99027.00;5115956;28;19923;-72
2023/10/04 03:18:13;;;;;;;;;;;;;;;18.36;100.00;99027.81;5125930;28;19959;-72
2023/10/04 03:20:54;;;;;;;;;;;;;;;18.35;100.00;99024.28;5121125;28;19923;-72
2023/10/04 03:23:21;;;;;;;;;;;;;;;18.29;100.00;99033.56;5121380;28;19930;-71
2023/10/04 03:25:48;;;;;;;;;;;;;;;18.25;100.00;99031.72;5123028;28;19931;-71
2023/10/04 03:28:15;;;;;;;;;;;;;;;18.20;100.00;99027.16;5097507;28;19995;-71
2023/10/04 03:30:44;;;;;;;;;;;;;;;18.17;100.00;99027.72;5118931;28;19955;-71
2023/10/04 03:33:11;;;;;;;;;;;;;;;18.16;100.00;99033.44;5119116;28;19924;-71
2023/10/04 03:35:39;;;;;;;;;;;;;;;18.12;100.00;99046.72;5121600;28;19932;-72
2023/10/04 03:38:07;;;;;;;;;;;;;;;18.13;100.00;99034.00;5117204;28;19924;-72
2023/10/04 03:40:35;;;;;;;;;;;;;;;18.15;100.00;99035.31;5118855;28;19995;-72
2023/10/04 03:43:05;;;;;;;;;;;;;;;18.17;100.00;99035.03;5119047;28;19985;-72
2023/10/04 03:45:32;;;;;;;;;;;;;;;18.11;100.00;99036.16;5118805;28;19935;-72
2023/10/04 03:47:59;;;;;;;;;;;;;;;18.08;100.00;99034.03;5116800;28;19949;-72
2023/10/04 03:50:27;;;;;;;;;;;;;;;18.07;100.00;99035.91;5115041;28;20014;-71
2023/10/04 03:52:57;;;;;;;;;;;;;;;18.06;100.00;99028.09;5117074;28;19924;-71
2023/10/04 03:55:26;;;;;;;;;;;;;;;18.03;100.00;99037.59;5120565;28;19924;-72
2023/10/04 03:57:53;;;;;;;;;;;;;;;18.04;100.00;99025.69;5118420;28;19928;-72
2023/10/04 04:00:21;;;;;;;;;;;;;;;18.01;100.00;99026.25;5118867;28;20133;-72
2023/10/04 04:02:48;;;;;;;;;;;;;;;18.04;100.00;99025.69;5120064;28;19924;-72
2023/10/04 04:05:15;;;;;;;;;;;;;;;18.02;100.00;99027.88;5118863;28;19924;-71
2023/10/04 04:07:41;;;;;;;;;;;;;;;18.02;100.00;99027.88;5117481;28;19924;-72
2023/10/04 04:10:08;;;;;;;;;;;;;;;18.01;100.00;99034.34;5117250;28;20675;-71
2023/10/04 04:12:37;;;;;;;;;;;;;;;18.00;100.00;99032.75;5114731;28;19928;-72
2023/10/04 04:15:04;;;;;;;;;;;;;;;17.99;100.00;99033.03;5115365;28;19969;-71
2023/10/04 04:17:31;;;;;;;;;;;;;;;17.99;100.00;99028.44;5118405;28;20316;-71
2023/10/04 04:19:57;;;;;;;;;;;;;;;17.98;100.00;99020.63;5119483;28;19923;-72
2023/10/04 04:22:25;;;;;;;;;;;;;;;17.97;100.00;99021.72;5118716;28;19946;-72
2023/10/04 04:24:52;;;;;;;;;;;;;;;17.98;100.00;99026.03;5121877;28;19924;-71
2023/10/04 04:27:22;;;;;;;;;;;;;;;17.98;100.00;99029.53;5119590;28;19924;-71
2023/10/04 04:29:52;;;;;;;;;;;;;;;17.95;100.00;99034.72;5119155;28;19924;-71
2023/10/04 04:32:26;;;;;;;;;;;;;;;17.94;100.00;99030.38;5118574;28;19946;-71
2023/10/04 04:34:53;;;;;;;;;;;;;;;17.91;100.00;99034.47;5115040;28;20581;-70
2023/10/04 04:37:20;;;;;;;;;;;;;;;17.83;100.00;99029.66;5114976;28;19925;-70
2023/10/04 04:39:47;;;;;;;;;;;;;;;17.79;100.00;99031.31;5118042;28;19983;-70
2023/10/04 04:42:19;;;;;;;;;;;;;;;17.75;100.00;99031.06;5118453;28;19930;-70
2023/10/04 04:44:46;;;;;;;;;;;;;;;17.64;100.00;99031.44;5118330;28;20019;-71
2023/10/04 04:47:17;;;;;;;;;;;;;;;17.45;100.00;99036.66;5118855;28;19987;-71
2023/10/04 04:49:44;;;;;;;;;;;;;;;17.52;100.00;99039.84;5118980;28;19991;-71
2023/10/04 04:52:11;;;;;;;;;;;;;;;17.61;100.00;99038.19;5118001;28;20690;-71
2023/10/04 04:54:37;;;;;;;;;;;;;;;17.63;100.00;99040.63;5119819;28;19946;-71
2023/10/04 04:57:05;;;;;;;;;;;;;;;17.67;100.00;99041.69;5115839;28;19932;-72
2023/10/04 04:59:31;;;;;;;;;;;;;;;17.70;100.00;99039.19;5114415;28;20538;-72
2023/10/04 05:02:00;;;;;;;;;;;;;;;17.70;100.00;99046.53;5115722;28;19932;-72
2023/10/04 05:04:28;;;;;;;;;;;;;;;17.63;100.00;99048.72;5117830;28;20411;-72
2023/10/04 05:06:55;;;;;;;;;;;;;;;17.64;100.00;99045.72;5117755;28;19948;-72
2023/10/04 05:09:21;;;;;;;;;;;;;;;17.59;100.00;99042.25;5118530;28;19930;-72
2023/10/04 05:11:47;;;;;;;;;;;;;;;17.65;100.00;99044.66;5118739;28;19925;-72
2023/10/04 05:14:14;;;;;;;;;;;;;;;17.62;100.00;99044.41;5118447;28;20012;-72
2023/10/04 05:16:40;;;;;;;;;;;;;;;17.61;100.00;99040.06;5118302;28;19939;-72
2023/10/04 05:19:13;;;;;;;;;;;;;;;17.63;100.00;99046.03;5118043;28;19927;-72
2023/10/04 05:21:40;;;;;;;;;;;;;;;17.60;100.00;99046.59;5118436;28;19931;-72
2023/10/04 05:24:07;;;;;;;;;;;;;;;17.35;100.00;99058.31;5127223;28;19931;-72
2023/10/04 05:26:35;;;;;;;;;;;;;;;17.05;100.00;99058.50;5117914;28;19928;-71
2023/10/04 05:29:03;;;;;;;;;;;;;;;17.12;100.00;99054.38;5121395;28;19931;-70
2023/10/04 05:31:29;;;;;;;;;;;;;;;17.30;100.00;99060.25;5121522;28;19927;-70
2023/10/04 05:33:55;;;;;;;;;;;;;;;17.30;100.00;99052.16;5119440;28;19950;-70
2023/10/04 05:36:22;;;;;;;;;;;;;;;17.34;100.00;99053.19;5124730;28;19920;-71
2023/10/04 05:38:50;;;;;;;;;;;;;;;17.25;100.00;99051.09;5121676;28;19925;-71
2023/10/04 05:41:16;;;;;;;;;;;;;;;17.35;100.00;99060.22;5121098;28;19923;-70
2023/10/04 05:43:43;;;;;;;;;;;;;;;17.39;100.00;99072.91;5116964;28;19924;-71
2023/10/04 05:46:11;;;;;;;;;;;;;;;17.40;100.00;99065.56;5118119;28;19924;-70
2023/10/04 05:48:37;;;;;;;;;;;;;;;17.43;100.00;99075.81;5120835;28;19924;-71
2023/10/04 05:51:07;;;;;;;;;;;;;;;17.42;100.00;99077.75;5121273;28;19928;-71
2023/10/04 05:53:33;;;;;;;;;;;;;;;17.43;100.00;99070.41;5120972;28;19928;-71
2023/10/04 05:56:01;;;;;;;;;;;;;;;17.42;100.00;99082.34;5120167;28;19943;-72
2023/10/04 05:58:27;;;;;;;;;;;;;;;17.43;100.00;99075.81;5121247;28;19924;-71
2023/10/04 06:00:55;;;;;;;;;;;;;;;17.40;100.00;99079.09;5121280;28;19980;-72
2023/10/04 06:03:22;;;;;;;;;;;;;;;17.41;100.00;99094.22;5120971;28;19930;-72
2023/10/04 06:05:50;;;;;;;;;;;;;;;17.39;100.00;99089.09;5118159;28;19924;-71
2023/10/04 06:08:18;;;;;;;;;;;;;;;17.39;100.00;99082.88;5116389;28;20568;-72
2023/10/04 06:10:45;;;;;;;;;;;;;;;17.39;100.00;99085.59;5120597;28;19924;-71
2023/10/04 06:13:12;;;;;;;;;;;;;;;17.40;100.00;99095.28;5119413;28;19946;-71
2023/10/04 06:15:39;;;;;;;;;;;;;;;17.44;100.00;99096.34;5116068;28;19927;-71
2023/10/04 06:18:07;;;;;;;;;;;;;;;17.50;100.00;99097.94;5118433;28;19924;-72
2023/10/04 06:20:36;;;;;;;;;;;;;;;17.53;100.00;99100.06;5121150;28;20319;-70
2023/10/04 06:23:05;;;;;;;;;;;;;;;17.61;100.00;99102.22;5121394;28;20009;-71
2023/10/04 06:25:32;;;;;;;;;;;;;;;17.69;100.00;99098.94;5124023;28;19936;-70
2023/10/04 06:27:59;;;;;;;;;;;;;;;17.81;100.00;99104.78;5120273;28;19951;-70
2023/10/04 06:30:27;;;;;;;;;;;;;;;17.94;100.00;99109.56;5120623;28;20343;-71
2023/10/04 06:32:55;;;;;;;;;;;;;;;18.03;100.00;99098.97;5120537;28;19985;-71
2023/10/04 06:35:23;;;;;;;;;;;;;;;18.09;100.00;99103.25;5120451;28;19927;-71
2023/10/04 06:37:51;;;;;;;;;;;;;;;18.18;100.00;99096.94;5099569;28;19924;-71
2023/10/04 06:40:19;;;;;;;;;;;;;;;18.27;100.00;99097.13;5116547;28;19924;-71
2023/10/04 06:42:46;;;;;;;;;;;;;;;18.28;100.00;99113.09;5114959;28;19928;-71
2023/10/04 06:45:13;;;;;;;;;;;;;;;18.31;100.00;99112.53;5120582;28;19955;-72
2023/10/04 06:47:43;;;;;;;;;;;;;;;18.16;100.00;99112.66;5123542;28;19973;-71
2023/10/04 06:50:13;;;;;;;;;;;;;;;18.19;100.00;99108.56;5118205;28;19924;-71
2023/10/04 06:52:40;;;;;;;;;;;;;;;18.04;100.00;99106.00;5120914;28;19946;-71
2023/10/04 06:55:08;;;;;;;;;;;;;;;17.99;100.00;99104.13;5119835;28;19920;-71
2023/10/04 06:57:35;;;;;;;;;;;;;;;17.89;100.00;99109.59;5121217;28;20445;-71
2023/10/04 07:00:01;;;;;;;;;;;;;;;18.00;100.00;99099.53;5121833;28;19934;-72
2023/10/04 07:02:27;;;;;;;;;;;;;;;17.98;100.00;99102.50;5122768;28;19916;-71
2023/10/04 07:04:55;;;;;;;;;;;;;;;17.76;100.00;99100.22;5119497;28;19996;-71
2023/10/04 07:07:22;;;;;;;;;;;;;;;17.82;100.00;99103.72;5120168;28;19924;-71
2023/10/04 07:09:48;;;;;;;;;;;;;;;17.79;100.00;99101.59;5119694;28;19920;-71
2023/10/04 07:12:14;;;;;;;;;;;;;;;17.71;100.00;99099.44;5119402;28;20361;-71
2023/10/04 07:14:41;;;;;;;;;;;;;;;17.66;100.00;99099.50;5115973;28;19924;-71
2023/10/04 07:17:07;;;;;;;;;;;;;;;17.64;100.00;99105.16;5106564;28;19926;-72
2023/10/04 07:19:34;;;;;;;;;;;;;;;17.66;100.00;99108.41;5119262;28;20704;-71
2023/10/04 07:22:03;;;;;;;;;;;;;;;17.51;100.00;99104.97;5116746;28;19991;-71
2023/10/04 07:24:32;;;;;;;;;;;;;;;17.64;100.00;99101.69;5113705;28;19924;-71
2023/10/04 07:26:59;;;;;;;;;;;;;;;17.68;100.00;99100.00;5115350;28;19924;-71
2023/10/04 07:29:26;;;;;;;;;;;;;;;17.63;100.00;99100.88;5100813;28;19924;-71
2023/10/04 07:31:53;;;;;;;;;;;;;;;17.63;100.00;99100.06;5119731;28;19928;-71
2023/10/04 07:34:19;;;;;;;;;;;;;;;17.68;100.00;99100.00;5120657;28;19934;-72
2023/10/04 07:36:45;;;;;;;;;;;;;;;17.64;100.00;99101.69;5116888;28;19923;-71
2023/10/04 07:39:15;;;;;;;;;;;;;;;17.62;100.00;99109.25;5121357;28;19948;-71
2023/10/04 07:41:42;;;;;;;;;;;;;;;17.42;100.00;99115.56;5118545;28;19924;-71
2023/10/04 07:44:10;;;;;;;;;;;;;;;17.34;100.00;99109.91;5117545;28;19935;-71
2023/10/04 07:46:36;;;;;;;;;;;;;;;17.01;100.00;99114.91;5115524;28;20011;-71
2023/10/04 07:49:03;;;;;;;;;;;;;;;17.04;100.00;99118.94;5116250;28;19924;-71
2023/10/04 07:51:29;;;;;;;;;;;;;;;16.98;100.00;99117.34;5118913;28;19924;-70
2023/10/04 07:53:56;;;;;;;;;;;;;;;16.85;100.00;99121.44;5118097;28;19924;-71
2023/10/04 07:56:24;;;;;;;;;;;;;;;16.84;100.00;99109.00;5119526;28;19992;-71
2023/10/04 07:58:51;;;;;;;;;;;;;;;16.71;100.00;99123.09;5118964;28;19950;-71
2023/10/04 08:01:18;;;;;;;;;;;;;;;16.79;100.00;99117.13;5118678;28;19923;-71
2023/10/04 08:03:44;;;;;;;;;;;;;;;16.41;100.00;99121.19;5097341;28;19930;-71
2023/10/04 08:06:11;;;;;;;;;;;;;;;16.52;100.00;99122.81;5122170;28;19935;-71
2023/10/04 08:08:37;;;;;;;;;;;;;;;16.69;100.00;99126.03;5114937;28;19986;-71
2023/10/04 08:11:08;;;;;;;;;;;;;;;16.58;100.00;99124.47;5115685;28;19987;-72
2023/10/04 08:13:38;;;;;;;;;;;;;;;16.92;100.00;99121.97;5117607;28;20467;-71
2023/10/04 08:16:04;;;;;;;;;;;;;;;16.84;100.00;99127.09;5125291;28;19927;-70
2023/10/04 08:18:31;;;;;;;;;;;;;;;16.61;100.00;99125.81;5113920;28;19927;-71
2023/10/04 08:20:57;;;;;;;;;;;;;;;16.50;100.00;99124.97;5117772;28;19924;-72
2023/10/04 08:23:24;;;;;;;;;;;;;;;16.96;100.00;99123.00;5118266;28;19924;-71
2023/10/04 08:25:50;;;;;;;;;;;;;;;17.17;100.00;99124.56;5115044;28;19935;-71
2023/10/04 08:28:16;;;;;;;;;;;;;;;17.21;100.00;99125.63;5118337;28;19928;-71
2023/10/04 08:30:44;;;;;;;;;;;;;;;17.22;100.00;99132.63;5114982;28;19934;-71
2023/10/04 08:33:11;;;;;;;;;;;;;;;17.24;100.00;99119.66;5098186;28;20332;-71
2023/10/04 08:35:38;;;;;;;;;;;;;;;17.34;100.00;99116.09;5100266;28;19958;-71
2023/10/04 08:38:06;;;;;;;;;;;;;;;17.30;100.00;99116.97;5124880;28;19924;-71
2023/10/04 08:40:35;;;;;;;;;;;;;;;17.34;100.00;99118.81;5114640;28;19927;-71
2023/10/04 08:43:02;;;;;;;;;;;;;;;17.45;100.00;99124.97;5116343;28;20065;-71
2023/10/04 08:45:29;;;;;;;;;;;;;;;17.48;100.00;99121.72;5117974;28;19924;-71
2023/10/04 08:47:57;;;;;;;;;;;;;;;17.41;100.00;99123.91;5117990;28;19946;-71
2023/10/04 08:50:30;;;;;;;;;;;;;;;17.53;100.00;99127.09;5117853;28;19923;-71
2023/10/04 08:52:59;;;;;;;;;;;;;;;17.49;100.00;99128.72;5115921;28;20155;-71
2023/10/04 08:55:26;;;;;;;;;;;;;;;17.55;100.00;99130.34;5122279;28;19939;-71
2023/10/04 08:57:53;;;;;;;;;;;;;;;17.48;100.00;99125.25;5122099;28;19951;-71
2023/10/04 09:00:23;;;;;;;;;;;;;;;17.45;100.00;99125.78;5121846;28;19924;-71
2023/10/04 09:02:50;;;;;;;;;;;;;;;17.49;100.00;99128.72;5118218;28;20421;-71
2023/10/04 09:05:23;;;;;;;;;;;;;;;17.37;100.00;99125.53;5118142;28;19927;-69
2023/10/04 09:07:50;;;;;;;;;;;;;;;17.35;100.00;99112.34;5116479;28;20460;-69
2023/10/04 09:10:18;;;;;;;;;;;;;;;17.31;100.00;99113.16;5130266;28;19928;-73
2023/10/04 09:12:46;;;;;;;;;;;;;;;17.18;100.00;99112.66;5117392;28;19928;-73
2023/10/04 09:15:13;;;;;;;;;;;;;;;17.29;100.00;99105.34;5119442;28;19932;-73
2023/10/04 09:17:43;;;;;;;;;;;;;;;17.42;100.00;99110.16;5122454;28;19924;-74
2023/10/04 09:20:11;;;;;;;;;;;;;;;17.24;100.00;99110.75;5122456;28;19943;-75
2023/10/04 09:22:39;;;;;;;;;;;;;;;17.19;100.00;99116.19;5120071;28;20459;-72
2023/10/04 09:25:06;;;;;;;;;;;;;;;17.40;100.00;99106.09;5115250;28;19920;-73
2023/10/04 09:27:32;;;;;;;;;;;;;;;17.52;100.00;99109.25;5117581;28;20310;-73
2023/10/04 09:29:59;;;;;;;;;;;;;;;17.57;100.00;99096.59;5119128;28;19982;-73
2023/10/04 09:32:36;;;;;;;;;;;;;;;17.70;100.00;99097.84;5121080;28;19925;-73
2023/10/04 09:35:03;;;;;;;;;;;;;;;17.80;100.00;99097.78;5127500;28;19967;-73
2023/10/04 09:37:30;;;;;;;;;;;;;;;17.63;100.00;99094.66;5116956;28;19931;-73
2023/10/04 09:40:07;;;;;;;;;;;;;;;17.58;100.00;99087.38;5120056;28;19959;-74
2023/10/04 09:42:44;;;;;;;;;;;;;;;17.66;100.00;99094.09;5121296;28;19958;-73
2023/10/04 09:45:12;;;;;;;;;;;;;;;17.77;100.00;99096.44;5122019;28;19942;-73
2023/10/04 09:47:39;;;;;;;;;;;;;;;17.93;100.00;99096.31;5121589;28;19920;-73
2023/10/04 09:50:09;;;;;;;;;;;;;;;17.92;97.67;99084.69;5120268;28;19969;-73
2023/10/04 09:52:37;;;;;;;;;;;;;;;17.74;97.34;99088.91;5122330;28;20600;-73
2023/10/04 09:55:05;;;;;;;;;;;;;;;17.67;97.17;99085.69;5120557;28;19970;-74
2023/10/04 09:57:35;;;;;;;;;;;;;;;17.57;97.40;99088.47;5120884;28;19963;-73
2023/10/04 10:00:05;;;;;;;;;;;;;;;17.68;97.67;99081.09;5118205;28;19973;-73
2023/10/04 10:02:36;;;;;;;;;;;;;;;17.65;94.49;99076.25;5116841;28;19924;-72
2023/10/04 10:05:02;;;;;;;;;;;;;;;17.65;96.76;99077.06;5117363;28;19924;-73
2023/10/04 10:07:32;;;;;;;;;;;;;;;17.70;97.67;99070.84;5120739;28;19924;-73
2023/10/04 10:10:02;;;;;;;;;;;;;;;17.88;98.99;99070.16;5121075;28;19924;-73
2023/10/04 10:12:30;;;;;;;;;;;;;;;17.95;96.55;99059.03;5103311;28;19928;-73
2023/10/04 10:15:00;;;;;;;;;;;;;;;18.01;97.36;99064.09;5114581;28;19924;-73
2023/10/04 10:17:27;;;;;;;;;;;;;;;18.39;94.55;99062.41;5121621;28;19952;-73
2023/10/04 10:19:54;;;;;;;;;;;;;;;18.58;90.85;99057.91;5121199;28;19970;-73
2023/10/04 10:22:21;;;;;;;;;;;;;;;18.40;87.38;99061.31;5116098;28;19935;-73
2023/10/04 10:24:50;;;;;;;;;;;;;;;18.46;90.77;99064.78;5096249;28;20075;-73
2023/10/04 10:27:19;;;;;;;;;;;;;;;18.43;87.17;99057.22;5117849;28;19931;-73
2023/10/04 10:29:46;;;;;;;;;;;;;;;18.50;87.48;99052.31;5117887;28;19942;-73
2023/10/04 10:32:20;;;;;;;;;;;;;;;18.40;86.01;99060.50;5120613;28;19924;-73
2023/10/04 10:34:49;;;;;;;;;;;;;;;18.55;88.98;99063.91;5120505;28;19928;-74
2023/10/04 10:37:17;;;;;;;;;;;;;;;18.72;86.68;99066.94;5120056;28;19928;-73
2023/10/04 10:39:45;;;;;;;;;;;;;;;19.06;83.59;99064.13;5095344;28;20035;-73
2023/10/04 10:42:12;;;;;;;;;;;;;;;19.00;81.54;99059.84;5096045;28;19950;-74
2023/10/04 10:44:39;;;;;;;;;;;;;;;19.16;81.61;99063.97;5120312;28;19923;-74
2023/10/04 10:47:07;;;;;;;;;;;;;;;19.36;78.59;99058.31;5127095;28;19945;-74
2023/10/04 10:49:53;;;;;;;;;;;;;;;19.45;76.50;99053.06;5115503;28;19928;-74
2023/10/04 10:52:33;;;;;;;;;;;;;;;19.07;72.09;99051.38;5122003;28;19930;-73
2023/10/04 10:55:00;;;;;;;;;;;;;;;18.80;72.53;99057.41;5118188;28;19955;-73
2023/10/04 10:57:29;;;;;;;;;;;;;;;19.11;74.29;99055.94;5121898;28;19920;-73
2023/10/04 10:59:56;;;;;;;;;;;;;;;19.39;72.30;99036.09;5123474;28;19991;-72
2023/10/04 11:02:23;;;;;;;;;;;;;;;19.36;70.93;99033.13;5120899;28;20619;-73
2023/10/04 11:04:50;;;;;;;;;;;;;;;19.68;72.01;99040.53;5117237;28;19991;-73
2023/10/04 11:07:17;;;;;;;;;;;;;;;20.05;70.76;99043.19;5123533;28;19924;-73
2023/10/04 11:09:48;;;;;;;;;;;;;;;20.26;69.12;99033.63;5101726;28;20071;-72
2023/10/04 11:12:15;;;;;;;;;;;;;;;20.23;66.70;99025.25;5118957;28;19994;-73
2023/10/04 11:14:42;;;;;;;;;;;;;;;20.48;67.75;99032.13;5115906;28;19924;-73
2023/10/04 11:17:10;;;;;;;;;;;;;;;20.64;67.03;99028.03;5115812;28;19925;-74
2023/10/04 11:19:37;;;;;;;;;;;;;;;20.62;65.26;99019.38;5119365;28;19931;-73
2023/10/04 11:22:03;;;;;;;;;;;;;;;20.38;64.57;99009.53;5125362;28;19924;-73
2023/10/04 11:24:30;;;;;;;;;;;;;;;20.39;65.09;99004.91;5113848;28;19987;-73
2023/10/04 11:26:58;;;;;;;;;;;;;;;20.76;64.03;99004.72;5118543;28;19935;-73
2023/10/04 11:29:25;;;;;;;;;;;;;;;21.03;61.41;99009.31;5118966;28;19935;-74
2023/10/04 11:31:52;;;;;;;;;;;;;;;21.09;60.85;99010.81;5119021;28;19970;-74
2023/10/04 11:34:18;;;;;;;;;;;;;;;20.82;61.18;99008.94;5118924;28;20751;-74
2023/10/04 11:36:46;;;;;;;;;;;;;;;20.77;60.92;99008.22;5111831;28;19928;-74
2023/10/04 11:39:18;;;;;;;;;;;;;;;20.55;60.21;99006.19;5113244;28;19927;-74
2023/10/04 11:41:46;;;;;;;;;;;;;;;20.33;60.46;99008.81;5112214;28;19946;-74
2023/10/04 11:44:14;;;;;;;;;;;;;;;20.16;61.71;99003.94;5126917;28;20091;-73
2023/10/04 11:46:53;;;;;;;;;;;;;;;20.08;62.51;99003.81;5117314;28;19919;-73
2023/10/04 11:49:21;;;;;;;;;;;;;;;20.03;62.54;99004.69;5118646;28;19928;-73
2023/10/04 11:51:48;;;;;;;;;;;;;;;19.98;63.17;99004.78;5122156;28;19953;-73
2023/10/04 11:54:14;;;;;;;;;;;;;;;19.99;62.29;99000.19;5120931;28;19927;-73
2023/10/04 11:56:41;;;;;;;;;;;;;;;20.02;62.91;98994.16;5123254;28;19943;-73
2023/10/04 11:59:08;;;;;;;;;;;;;;;20.05;62.75;98991.66;5121566;28;19954;-73
2023/10/04 12:01:44;;;;;;;;;;;;;;;20.23;62.41;98987.25;5116727;28;19928;-73
2023/10/04 12:04:11;;;;;;;;;;;;;;;20.31;61.50;98990.09;5125027;28;19991;-74
2023/10/04 12:06:38;;;;;;;;;;;;;;;20.10;56.45;98983.44;5102083;28;19924;-73
2023/10/04 12:09:06;;;;;;;;;;;;;;;19.90;57.54;98981.06;5118319;28;19942;-73
2023/10/04 12:11:35;;;;;;;;;;;;;;;20.01;60.25;98981.69;5115963;28;19991;-75
2023/10/04 12:14:02;;;;;;;;;;;;;;;20.10;59.30;98977.19;5116774;28;19961;-74
2023/10/04 12:16:29;;;;;;;;;;;;;;;19.92;57.90;98978.88;5120097;28;19934;-74
2023/10/04 12:18:56;;;;;;;;;;;;;;;20.15;60.05;98972.47;5119791;28;19924;-74
2023/10/04 12:21:24;;;;;;;;;;;;;;;20.19;59.39;98969.97;5119975;28;19924;-74
2023/10/04 12:23:50;;;;;;;;;;;;;;;20.35;58.21;98961.28;5119500;28;19924;-74
2023/10/04 12:26:20;;;;;;;;;;;;;;;20.45;58.83;98963.00;5119077;28;19924;-74
2023/10/04 12:28:47;;;;;;;;;;;;;;;20.54;57.97;98952.22;5118198;28;19924;-74
2023/10/04 12:31:13;;;;;;;;;;;;;;;20.60;57.80;98956.44;5117984;28;19990;-74
2023/10/04 12:33:40;;;;;;;;;;;;;;;20.55;58.15;98948.44;5115050;28;19934;-74
2023/10/04 12:36:09;;;;;;;;;;;;;;;20.54;57.96;98952.22;5115337;28;19935;-74
2023/10/04 12:38:36;;;;;;;;;;;;;;;20.59;57.84;98949.41;5118595;28;19928;-74
2023/10/04 12:41:03;;;;;;;;;;;;;;;20.57;57.50;98948.91;5118569;28;19924;-74